createdAt,value
2022-08-02T00:00:33.679Z,1003.52
2022-08-02T00:01:32.722Z,1003.56
2022-08-02T00:02:39.781Z,1003.55
2022-08-02T00:03:32.679Z,1003.53
2022-08-02T00:04:32.633Z,1003.55
2022-08-02T00:05:32.639Z,1003.57
2022-08-02T00:06:32.611Z,1003.55
2022-08-02T00:07:35.330Z,1003.56
2022-08-02T00:08:33.631Z,1003.55
2022-08-02T00:09:32.562Z,1003.57
2022-08-02T00:10:32.551Z,1003.61
2022-08-02T00:11:32.554Z,1003.63
2022-08-02T00:12:32.521Z,1003.63
2022-08-02T00:13:32.573Z,1003.65
2022-08-02T00:14:32.502Z,1003.66
2022-08-02T00:15:32.500Z,1003.66
2022-08-02T00:16:37.944Z,1003.66
2022-08-02T00:17:33.465Z,1003.65
2022-08-02T00:18:32.463Z,1003.64
2022-08-02T00:19:32.443Z,1003.63
2022-08-02T00:20:32.437Z,1003.69
2022-08-02T00:21:32.413Z,1003.64
2022-08-02T00:22:32.393Z,1003.66
2022-08-02T00:23:32.434Z,1003.67
2022-08-02T00:24:33.364Z,1003.67
2022-08-02T00:25:32.384Z,1003.61
2022-08-02T00:26:32.355Z,1003.65
2022-08-02T00:27:32.344Z,1003.64
2022-08-02T00:28:32.334Z,1003.64
2022-08-02T00:29:32.306Z,1003.60
2022-08-02T00:30:32.293Z,1003.65
2022-08-02T00:31:32.283Z,1003.62
2022-08-02T00:32:32.264Z,1003.64
2022-08-02T00:34:05.167Z,1003.63
2022-08-02T00:34:37.739Z,1003.62
2022-08-02T00:35:32.225Z,1003.64
2022-08-02T00:36:32.226Z,1003.62
2022-08-02T00:37:32.215Z,1003.65
2022-08-02T00:38:32.205Z,1003.66
2022-08-02T00:39:35.018Z,1003.66
2022-08-02T00:40:32.164Z,1003.66
2022-08-02T00:41:32.156Z,1003.69
2022-08-02T00:42:32.135Z,1003.69
2022-08-02T00:43:32.178Z,1003.71
2022-08-02T00:44:32.105Z,1003.67
2022-08-02T00:46:02.405Z,1003.66
2022-08-02T00:46:33.116Z,1003.68
2022-08-02T00:47:32.093Z,1003.60
2022-08-02T00:48:32.075Z,1003.61
2022-08-02T00:49:33.057Z,1003.66
2022-08-02T00:50:32.025Z,1003.64
2022-08-02T00:51:32.017Z,1003.68
2022-08-02T00:52:32.006Z,1003.66
2022-08-02T00:53:31.986Z,1003.62
2022-08-02T00:54:32.027Z,1003.67
2022-08-02T00:55:31.966Z,1003.67
2022-08-02T00:56:31.944Z,1003.64
2022-08-02T00:57:31.945Z,1003.64
2022-08-02T00:58:31.925Z,1003.65
2022-08-02T00:59:31.933Z,1003.65
2022-08-02T01:00:31.895Z,1003.64
2022-08-02T01:01:31.924Z,1003.61
2022-08-02T01:02:31.867Z,1003.63
2022-08-02T01:03:31.855Z,1003.62
2022-08-02T01:04:32.444Z,1003.63
2022-08-02T01:05:42.753Z,1003.63
2022-08-02T01:06:32.816Z,1003.60
2022-08-02T01:07:31.818Z,1003.60
2022-08-02T01:08:32.055Z,1003.58
2022-08-02T01:09:31.807Z,1003.58
2022-08-02T01:10:31.778Z,1003.63
2022-08-02T01:11:31.748Z,1003.63
2022-08-02T01:12:31.735Z,1003.63
2022-08-02T01:13:31.727Z,1003.63
2022-08-02T01:14:31.719Z,1003.63
2022-08-02T01:15:35.884Z,1003.64
2022-08-02T01:16:32.687Z,1003.65
2022-08-02T01:17:31.679Z,1003.69
2022-08-02T01:18:31.649Z,1003.66
2022-08-02T01:19:31.668Z,1003.70
2022-08-02T01:20:31.628Z,1003.66
2022-08-02T01:21:31.619Z,1003.67
2022-08-02T01:22:59.345Z,1003.66
2022-08-02T01:23:32.587Z,1003.66
2022-08-02T01:24:31.610Z,1003.63
2022-08-02T01:25:31.577Z,1003.62
2022-08-02T01:26:31.549Z,1003.62
2022-08-02T01:27:31.541Z,1003.59
2022-08-02T01:28:31.520Z,1003.59
2022-08-02T01:29:31.540Z,1003.61
2022-08-02T01:30:31.491Z,1003.55
2022-08-02T01:31:31.490Z,1003.56
2022-08-02T01:32:31.472Z,1003.54
2022-08-02T01:33:31.463Z,1003.61
2022-08-02T01:34:31.465Z,1003.57
2022-08-02T01:35:50.774Z,1003.62
2022-08-02T01:36:32.411Z,1003.61
2022-08-02T01:37:31.419Z,1003.58
2022-08-02T01:38:31.401Z,1003.63
2022-08-02T01:39:32.244Z,1003.61
2022-08-02T01:40:31.381Z,1003.62
2022-08-02T01:41:31.354Z,1003.60
2022-08-02T01:42:31.334Z,1003.64
2022-08-02T01:43:31.331Z,1003.61
2022-08-02T01:44:31.353Z,1003.60
2022-08-02T01:45:31.311Z,1003.61
2022-08-02T01:46:31.282Z,1003.64
2022-08-02T01:47:31.282Z,1003.67
2022-08-02T01:48:31.259Z,1003.63
2022-08-02T01:49:31.376Z,1003.64
2022-08-02T01:50:31.222Z,1003.64
2022-08-02T01:51:34.524Z,1003.61
2022-08-02T01:52:32.200Z,1003.64
2022-08-02T01:53:31.200Z,1003.65
2022-08-02T01:54:31.197Z,1003.67
2022-08-02T01:55:33.494Z,1003.69
2022-08-02T01:56:32.140Z,1003.68
2022-08-02T01:57:31.139Z,1003.71
2022-08-02T01:58:31.112Z,1003.71
2022-08-02T01:59:31.109Z,1003.73
2022-08-02T02:00:31.087Z,1003.73
2022-08-02T02:01:31.157Z,1003.69
2022-08-02T02:02:31.902Z,1003.74
2022-08-02T02:03:31.051Z,1003.72
2022-08-02T02:04:31.059Z,1003.71
2022-08-02T02:05:31.066Z,1003.72
2022-08-02T02:06:31.002Z,1003.71
2022-08-02T02:07:31.011Z,1003.68
2022-08-02T02:08:30.985Z,1003.71
2022-08-02T02:09:30.991Z,1003.72
2022-08-02T02:10:31.005Z,1003.69
2022-08-02T02:12:05.226Z,1003.70
2022-08-02T02:12:31.923Z,1003.74
2022-08-02T02:13:33.165Z,1003.73
2022-08-02T02:14:30.913Z,1003.72
2022-08-02T02:15:30.910Z,1003.72
2022-08-02T02:16:30.904Z,1003.73
2022-08-02T02:18:11.472Z,1003.72
2022-08-02T02:18:31.857Z,1003.70
2022-08-02T02:19:30.844Z,1003.72
2022-08-02T02:20:30.853Z,1003.72
2022-08-02T02:21:31.405Z,1003.69
2022-08-02T02:22:30.822Z,1003.71
2022-08-02T02:23:30.813Z,1003.72
2022-08-02T02:24:30.785Z,1003.71
2022-08-02T02:25:36.447Z,1003.70
2022-08-02T02:26:31.921Z,1003.68
2022-08-02T02:27:30.767Z,1003.68
2022-08-02T02:28:30.723Z,1003.66
2022-08-02T02:29:30.722Z,1003.69
2022-08-02T02:30:30.716Z,1003.70
2022-08-02T02:31:30.689Z,1003.67
2022-08-02T02:32:30.676Z,1003.70
2022-08-02T02:33:30.667Z,1003.69
2022-08-02T02:34:30.647Z,1003.68
2022-08-02T02:35:30.658Z,1003.69
2022-08-02T02:36:30.617Z,1003.69
2022-08-02T02:37:30.626Z,1003.68
2022-08-02T02:38:30.594Z,1003.71
2022-08-02T02:39:30.596Z,1003.71
2022-08-02T02:40:30.579Z,1003.69
2022-08-02T02:41:30.559Z,1003.68
2022-08-02T02:42:30.539Z,1003.68
2022-08-02T02:43:30.537Z,1003.64
2022-08-02T02:44:30.516Z,1003.63
2022-08-02T02:45:30.526Z,1003.59
2022-08-02T02:46:30.498Z,1003.54
2022-08-02T02:47:41.330Z,1003.55
2022-08-02T02:48:31.448Z,1003.51
2022-08-02T02:49:30.498Z,1003.48
2022-08-02T02:50:30.461Z,1003.51
2022-08-02T02:51:30.428Z,1003.52
2022-08-02T02:52:30.408Z,1003.55
2022-08-02T02:53:30.399Z,1003.59
2022-08-02T02:54:34.875Z,1003.57
2022-08-02T02:55:30.387Z,1003.64
2022-08-02T02:56:30.349Z,1003.66
2022-08-02T02:57:30.360Z,1003.71
2022-08-02T02:58:30.333Z,1003.68
2022-08-02T02:59:30.322Z,1003.71
2022-08-02T03:00:30.327Z,1003.71
2022-08-02T03:01:55.524Z,1003.69
2022-08-02T03:02:31.269Z,1003.69
2022-08-02T03:03:30.269Z,1003.71
2022-08-02T03:04:36.124Z,1003.68
2022-08-02T03:05:31.256Z,1003.70
2022-08-02T03:06:30.229Z,1003.69
2022-08-02T03:07:30.220Z,1003.69
2022-08-02T03:08:30.205Z,1003.70
2022-08-02T03:09:30.180Z,1003.71
2022-08-02T03:10:30.188Z,1003.69
2022-08-02T03:11:30.157Z,1003.72
2022-08-02T03:12:32.176Z,1003.73
2022-08-02T03:13:33.166Z,1003.71
2022-08-02T03:14:31.119Z,1003.71
2022-08-02T03:15:30.130Z,1003.69
2022-08-02T03:16:30.099Z,1003.68
2022-08-02T03:17:30.080Z,1003.66
2022-08-02T03:18:30.074Z,1003.67
2022-08-02T03:19:33.072Z,1003.68
2022-08-02T03:20:30.053Z,1003.64
2022-08-02T03:21:30.040Z,1003.64
2022-08-02T03:22:30.019Z,1003.64
2022-08-02T03:23:30.042Z,1003.58
2022-08-02T03:24:30.008Z,1003.58
2022-08-02T03:25:30.003Z,1003.57
2022-08-02T03:26:29.952Z,1003.57
2022-08-02T03:27:29.952Z,1003.55
2022-08-02T03:28:29.938Z,1003.57
2022-08-02T03:29:34.135Z,1003.57
2022-08-02T03:30:29.932Z,1003.58
2022-08-02T03:31:32.828Z,1003.57
2022-08-02T03:32:29.872Z,1003.56
2022-08-02T03:33:29.865Z,1003.56
2022-08-02T03:34:29.862Z,1003.53
2022-08-02T03:35:29.859Z,1003.52
2022-08-02T03:36:29.830Z,1003.53
2022-08-02T03:37:29.824Z,1003.53
2022-08-02T03:38:29.799Z,1003.57
2022-08-02T03:39:29.782Z,1003.54
2022-08-02T03:40:29.793Z,1003.56
2022-08-02T03:41:29.755Z,1003.59
2022-08-02T03:42:29.743Z,1003.55
2022-08-02T03:43:29.734Z,1003.59
2022-08-02T03:44:29.742Z,1003.57
2022-08-02T03:45:29.711Z,1003.56
2022-08-02T03:46:29.702Z,1003.53
2022-08-02T03:47:29.781Z,1003.52
2022-08-02T03:48:34.122Z,1003.51
2022-08-02T03:49:30.750Z,1003.53
2022-08-02T03:50:29.645Z,1003.51
2022-08-02T03:51:29.622Z,1003.51
2022-08-02T03:52:29.614Z,1003.51
2022-08-02T03:53:29.613Z,1003.53
2022-08-02T03:54:32.876Z,1003.52
2022-08-02T03:55:30.575Z,1003.51
2022-08-02T03:56:29.567Z,1003.49
2022-08-02T03:57:29.553Z,1003.46
2022-08-02T03:58:29.535Z,1003.44
2022-08-02T03:59:32.582Z,1003.46
2022-08-02T04:00:29.504Z,1003.46
2022-08-02T04:01:29.563Z,1003.44
2022-08-02T04:02:29.482Z,1003.44
2022-08-02T04:03:29.465Z,1003.49
2022-08-02T04:04:29.477Z,1003.47
2022-08-02T04:05:29.435Z,1003.48
2022-08-02T04:06:29.424Z,1003.44
2022-08-02T04:08:33.556Z,1003.47
2022-08-02T04:08:36.973Z,1003.48
2022-08-02T04:09:30.403Z,1003.47
2022-08-02T04:10:29.375Z,1003.48
2022-08-02T04:11:29.354Z,1003.48
2022-08-02T04:12:29.363Z,1003.47
2022-08-02T04:13:31.835Z,1003.54
2022-08-02T04:14:30.337Z,1003.52
2022-08-02T04:15:30.306Z,1003.50
2022-08-02T04:16:29.307Z,1003.51
2022-08-02T04:17:29.285Z,1003.53
2022-08-02T04:18:29.267Z,1003.54
2022-08-02T04:19:29.278Z,1003.55
2022-08-02T04:20:29.247Z,1003.60
2022-08-02T04:21:41.426Z,1003.61
2022-08-02T04:22:30.217Z,1003.61
2022-08-02T04:23:29.195Z,1003.64
2022-08-02T04:24:29.216Z,1003.63
2022-08-02T04:25:38.289Z,1003.61
2022-08-02T04:26:30.167Z,1003.60
2022-08-02T04:27:50.527Z,1003.63
2022-08-02T04:28:30.139Z,1003.72
2022-08-02T04:29:29.149Z,1003.77
2022-08-02T04:30:29.128Z,1003.72
2022-08-02T04:31:29.110Z,1003.76
2022-08-02T04:32:29.088Z,1003.79
2022-08-02T04:33:29.069Z,1003.79
2022-08-02T04:34:29.063Z,1003.80
2022-08-02T04:35:29.063Z,1003.82
2022-08-02T04:36:31.079Z,1003.85
2022-08-02T04:37:29.008Z,1003.86
2022-08-02T04:38:28.997Z,1003.85
2022-08-02T04:39:28.988Z,1003.83
2022-08-02T04:40:28.998Z,1003.88
2022-08-02T04:41:28.965Z,1003.86
2022-08-02T04:42:29.028Z,1003.83
2022-08-02T04:43:28.938Z,1003.82
2022-08-02T04:44:28.933Z,1003.81
2022-08-02T04:45:28.921Z,1003.77
2022-08-02T04:46:28.908Z,1003.79
2022-08-02T04:48:03.680Z,1003.77
2022-08-02T04:48:29.867Z,1003.77
2022-08-02T04:49:28.876Z,1003.74
2022-08-02T04:50:28.853Z,1003.75
2022-08-02T04:51:37.790Z,1003.75
2022-08-02T04:52:29.816Z,1003.74
2022-08-02T04:53:28.790Z,1003.75
2022-08-02T04:54:28.788Z,1003.75
2022-08-02T04:55:29.355Z,1003.78
2022-08-02T04:56:28.770Z,1003.82
2022-08-02T04:57:28.741Z,1003.80
2022-08-02T04:58:44.077Z,1003.82
2022-08-02T04:59:29.723Z,1003.84
2022-08-02T05:00:28.785Z,1003.86
2022-08-02T05:01:28.711Z,1003.89
2022-08-02T05:02:28.675Z,1003.90
2022-08-02T05:03:28.713Z,1003.91
2022-08-02T05:04:28.661Z,1003.94
2022-08-02T05:05:28.652Z,1003.93
2022-08-02T05:06:28.631Z,1003.91
2022-08-02T05:07:28.620Z,1003.88
2022-08-02T05:08:29.613Z,1003.92
2022-08-02T05:09:28.602Z,1003.88
2022-08-02T05:10:28.601Z,1003.91
2022-08-02T05:11:34.631Z,1003.90
2022-08-02T05:12:29.551Z,1003.92
2022-08-02T05:13:28.541Z,1003.92
2022-08-02T05:14:28.529Z,1003.93
2022-08-02T05:15:33.180Z,1003.95
2022-08-02T05:16:31.594Z,1003.96
2022-08-02T05:17:28.481Z,1004.00
2022-08-02T05:18:28.482Z,1003.95
2022-08-02T05:19:28.456Z,1003.99
2022-08-02T05:20:28.460Z,1004.00
2022-08-02T05:21:28.615Z,1003.97
2022-08-02T05:22:28.424Z,1003.95
2022-08-02T05:23:28.412Z,1003.96
2022-08-02T05:24:28.992Z,1003.99
2022-08-02T05:25:28.749Z,1003.98
2022-08-02T05:26:28.391Z,1003.99
2022-08-02T05:27:28.344Z,1003.98
2022-08-02T05:28:28.323Z,1003.99
2022-08-02T05:29:28.733Z,1003.93
2022-08-02T05:30:28.329Z,1003.91
2022-08-02T05:31:28.303Z,1003.94
2022-08-02T05:32:28.443Z,1003.95
2022-08-02T05:33:28.263Z,1003.93
2022-08-02T05:34:28.254Z,1003.96
2022-08-02T05:35:28.243Z,1004.05
2022-08-02T05:36:28.254Z,1004.03
2022-08-02T05:37:28.215Z,1004.00
2022-08-02T05:38:28.223Z,1004.02
2022-08-02T05:39:31.778Z,1004.01
2022-08-02T05:40:28.164Z,1004.07
2022-08-02T05:41:28.176Z,1004.06
2022-08-02T05:42:28.153Z,1004.05
2022-08-02T05:43:28.144Z,1004.04
2022-08-02T05:44:28.137Z,1004.01
2022-08-02T05:45:28.124Z,1004.03
2022-08-02T05:46:28.139Z,1004.08
2022-08-02T05:47:28.105Z,1004.08
2022-08-02T05:48:31.874Z,1004.07
2022-08-02T05:49:28.078Z,1004.07
2022-08-02T05:50:28.066Z,1004.03
2022-08-02T05:51:28.045Z,1004.04
2022-08-02T05:52:28.023Z,1004.04
2022-08-02T05:53:28.006Z,1004.08
2022-08-02T05:54:27.997Z,1004.07
2022-08-02T05:55:28.011Z,1004.00
2022-08-02T05:56:28.720Z,1004.03
2022-08-02T05:57:27.957Z,1004.04
2022-08-02T05:58:28.415Z,1004.01
2022-08-02T05:59:27.934Z,1004.07
2022-08-02T06:00:28.062Z,1004.03
2022-08-02T06:01:28.254Z,1004.05
2022-08-02T06:02:30.490Z,1004.08
2022-08-02T06:03:28.017Z,1004.11
2022-08-02T06:04:28.337Z,1004.15
2022-08-02T06:05:27.947Z,1004.16
2022-08-02T06:06:27.867Z,1004.15
2022-08-02T06:07:28.147Z,1004.16
2022-08-02T06:08:27.956Z,1004.18
2022-08-02T06:09:27.798Z,1004.18
2022-08-02T06:10:27.830Z,1004.20
2022-08-02T06:11:27.986Z,1004.21
2022-08-02T06:12:27.848Z,1004.19
2022-08-02T06:13:27.748Z,1004.16
2022-08-02T06:14:30.491Z,1004.17
2022-08-02T06:15:28.058Z,1004.18
2022-08-02T06:16:32.235Z,1004.17
2022-08-02T06:17:28.697Z,1004.14
2022-08-02T06:18:28.374Z,1004.11
2022-08-02T06:19:27.667Z,1004.14
2022-08-02T06:20:27.727Z,1004.12
2022-08-02T06:22:31.809Z,1004.10
2022-08-02T06:22:33.203Z,1004.14
2022-08-02T06:23:28.609Z,1004.10
2022-08-02T06:24:27.600Z,1004.14
2022-08-02T06:25:48.313Z,1004.14
2022-08-02T06:26:28.595Z,1004.12
2022-08-02T06:27:27.569Z,1004.13
2022-08-02T06:28:27.870Z,1004.11
2022-08-02T06:29:28.219Z,1004.12
2022-08-02T06:30:27.759Z,1004.13
2022-08-02T06:31:27.509Z,1004.12
2022-08-02T06:32:27.565Z,1004.14
2022-08-02T06:33:27.489Z,1004.07
2022-08-02T06:34:27.500Z,1004.00
2022-08-02T06:35:27.468Z,1004.01
2022-08-02T06:36:27.451Z,1003.97
2022-08-02T06:37:27.455Z,1003.99
2022-08-02T06:38:27.422Z,1003.94
2022-08-02T06:39:27.397Z,1003.92
2022-08-02T06:40:27.409Z,1003.95
2022-08-02T06:41:27.381Z,1003.95
2022-08-02T06:42:27.662Z,1003.95
2022-08-02T06:43:27.352Z,1003.97
2022-08-02T06:44:48.134Z,1003.97
2022-08-02T06:45:28.320Z,1003.96
2022-08-02T06:46:34.062Z,1003.99
2022-08-02T06:47:28.304Z,1003.97
2022-08-02T06:48:27.271Z,1003.97
2022-08-02T06:49:27.373Z,1003.98
2022-08-02T06:50:28.264Z,1003.99
2022-08-02T06:51:27.243Z,1003.99
2022-08-02T06:52:29.264Z,1004.01
2022-08-02T06:53:27.213Z,1003.96
2022-08-02T06:54:27.215Z,1003.94
2022-08-02T06:55:27.192Z,1003.97
2022-08-02T06:56:27.269Z,1003.99
2022-08-02T06:57:27.181Z,1003.97
2022-08-02T06:58:27.154Z,1003.99
2022-08-02T06:59:27.224Z,1003.96
2022-08-02T07:00:27.136Z,1003.94
2022-08-02T07:01:27.125Z,1003.92
2022-08-02T07:02:28.114Z,1003.93
2022-08-02T07:03:27.084Z,1003.94
2022-08-02T07:04:27.092Z,1003.93
2022-08-02T07:05:27.054Z,1003.92
2022-08-02T07:06:27.044Z,1003.87
2022-08-02T07:07:27.054Z,1003.93
2022-08-02T07:08:27.025Z,1003.87
2022-08-02T07:09:26.995Z,1003.93
2022-08-02T07:10:26.987Z,1003.95
2022-08-02T07:11:26.962Z,1003.92
2022-08-02T07:12:27.459Z,1003.98
2022-08-02T07:13:27.294Z,1003.96
2022-08-02T07:14:27.350Z,1003.96
2022-08-02T07:15:26.937Z,1003.95
2022-08-02T07:16:27.127Z,1003.93
2022-08-02T07:17:26.917Z,1003.92
2022-08-02T07:18:26.878Z,1003.88
2022-08-02T07:19:34.964Z,1003.90
2022-08-02T07:20:27.869Z,1003.88
2022-08-02T07:21:55.930Z,1003.87
2022-08-02T07:22:27.856Z,1003.86
2022-08-02T07:23:26.827Z,1003.86
2022-08-02T07:24:26.807Z,1003.86
2022-08-02T07:25:26.785Z,1003.82
2022-08-02T07:26:27.769Z,1003.75
2022-08-02T07:27:26.786Z,1003.79
2022-08-02T07:28:26.748Z,1003.76
2022-08-02T07:29:26.735Z,1003.75
2022-08-02T07:30:27.789Z,1003.77
2022-08-02T07:31:26.715Z,1003.77
2022-08-02T07:32:26.708Z,1003.76
2022-08-02T07:33:39.095Z,1003.79
2022-08-02T07:34:27.899Z,1003.77
2022-08-02T07:35:26.655Z,1003.77
2022-08-02T07:36:26.627Z,1003.78
2022-08-02T07:37:53.447Z,1003.76
2022-08-02T07:38:27.629Z,1003.73
2022-08-02T07:39:26.599Z,1003.70
2022-08-02T07:40:26.587Z,1003.69
2022-08-02T07:41:26.569Z,1003.68
2022-08-02T07:42:26.559Z,1003.68
2022-08-02T07:43:26.549Z,1003.63
2022-08-02T07:44:26.548Z,1003.65
2022-08-02T07:45:26.524Z,1003.64
2022-08-02T07:46:26.509Z,1003.68
2022-08-02T07:47:26.500Z,1003.68
2022-08-02T07:48:26.499Z,1003.66
2022-08-02T07:49:26.519Z,1003.65
2022-08-02T07:50:26.449Z,1003.61
2022-08-02T07:51:26.462Z,1003.65
2022-08-02T07:52:26.418Z,1003.63
2022-08-02T07:53:50.175Z,1003.62
2022-08-02T07:54:27.400Z,1003.65
2022-08-02T07:55:39.381Z,1003.66
2022-08-02T07:56:27.384Z,1003.65
2022-08-02T07:57:26.361Z,1003.64
2022-08-02T07:58:27.268Z,1003.64
2022-08-02T07:59:26.355Z,1003.63
2022-08-02T08:00:26.322Z,1003.68
2022-08-02T08:01:26.423Z,1003.65
2022-08-02T08:02:26.300Z,1003.66
2022-08-02T08:03:26.302Z,1003.64
2022-08-02T08:04:26.272Z,1003.63
2022-08-02T08:05:26.304Z,1003.67
2022-08-02T08:06:29.013Z,1003.71
2022-08-02T08:07:26.233Z,1003.70
2022-08-02T08:08:26.263Z,1003.73
2022-08-02T08:09:27.454Z,1003.73
2022-08-02T08:10:30.000Z,1003.74
2022-08-02T08:11:26.192Z,1003.75
2022-08-02T08:12:26.171Z,1003.70
2022-08-02T08:13:26.174Z,1003.71
2022-08-02T08:14:26.142Z,1003.65
2022-08-02T08:15:26.469Z,1003.64
2022-08-02T08:16:29.354Z,1003.60
2022-08-02T08:17:26.532Z,1003.60
2022-08-02T08:18:26.094Z,1003.60
2022-08-02T08:19:50.247Z,1003.57
2022-08-02T08:20:27.041Z,1003.54
2022-08-02T08:21:26.055Z,1003.47
2022-08-02T08:22:26.034Z,1003.47
2022-08-02T08:23:26.045Z,1003.46
2022-08-02T08:24:26.120Z,1003.44
2022-08-02T08:25:27.235Z,1003.43
2022-08-02T08:26:26.197Z,1003.47
2022-08-02T08:27:27.064Z,1003.46
2022-08-02T08:28:25.966Z,1003.48
2022-08-02T08:29:25.937Z,1003.47
2022-08-02T08:30:25.915Z,1003.52
2022-08-02T08:31:25.924Z,1003.51
2022-08-02T08:32:26.063Z,1003.50
2022-08-02T08:33:25.904Z,1003.52
2022-08-02T08:34:25.868Z,1003.57
2022-08-02T08:35:25.857Z,1003.49
2022-08-02T08:36:25.847Z,1003.50
2022-08-02T08:37:25.829Z,1003.47
2022-08-02T08:38:26.178Z,1003.43
2022-08-02T08:39:25.817Z,1003.44
2022-08-02T08:40:25.798Z,1003.41
2022-08-02T08:41:25.805Z,1003.44
2022-08-02T08:42:25.774Z,1003.40
2022-08-02T08:43:25.767Z,1003.38
2022-08-02T08:44:25.737Z,1003.37
2022-08-02T08:45:25.728Z,1003.36
2022-08-02T08:46:25.717Z,1003.37
2022-08-02T08:47:25.708Z,1003.36
2022-08-02T08:48:31.275Z,1003.36
2022-08-02T08:49:26.779Z,1003.34
2022-08-02T08:50:26.047Z,1003.38
2022-08-02T08:51:25.639Z,1003.41
2022-08-02T08:52:25.619Z,1003.42
2022-08-02T08:53:36.872Z,1003.40
2022-08-02T08:54:27.129Z,1003.40
2022-08-02T08:55:25.599Z,1003.37
2022-08-02T08:56:25.579Z,1003.37
2022-08-02T08:57:25.589Z,1003.38
2022-08-02T08:58:25.571Z,1003.38
2022-08-02T08:59:25.540Z,1003.34
2022-08-02T09:00:25.529Z,1003.34
2022-08-02T09:01:25.640Z,1003.34
2022-08-02T09:02:28.601Z,1003.31
2022-08-02T09:03:25.509Z,1003.33
2022-08-02T09:04:25.524Z,1003.33
2022-08-02T09:05:25.459Z,1003.32
2022-08-02T09:06:25.440Z,1003.31
2022-08-02T09:07:25.431Z,1003.29
2022-08-02T09:08:25.439Z,1003.29
2022-08-02T09:09:25.412Z,1003.25
2022-08-02T09:10:25.383Z,1003.23
2022-08-02T09:11:25.378Z,1003.27
2022-08-02T09:12:25.368Z,1003.23
2022-08-02T09:13:38.954Z,1003.20
2022-08-02T09:14:26.590Z,1003.17
2022-08-02T09:15:25.342Z,1003.21
2022-08-02T09:16:25.304Z,1003.20
2022-08-02T09:17:25.300Z,1003.21
2022-08-02T09:18:25.305Z,1003.23
2022-08-02T09:19:25.299Z,1003.22
2022-08-02T09:20:30.439Z,1003.24
2022-08-02T09:21:26.251Z,1003.23
2022-08-02T09:22:25.232Z,1003.26
2022-08-02T09:23:25.233Z,1003.23
2022-08-02T09:24:25.234Z,1003.23
2022-08-02T09:25:26.205Z,1003.26
2022-08-02T09:26:25.252Z,1003.23
2022-08-02T09:27:25.183Z,1003.21
2022-08-02T09:28:25.185Z,1003.20
2022-08-02T09:29:25.168Z,1003.18
2022-08-02T09:30:25.154Z,1003.16
2022-08-02T09:31:25.115Z,1003.19
2022-08-02T09:32:25.105Z,1003.11
2022-08-02T09:33:25.107Z,1003.11
2022-08-02T09:34:25.095Z,1003.11
2022-08-02T09:35:25.065Z,1003.09
2022-08-02T09:36:25.265Z,1003.08
2022-08-02T09:37:25.035Z,1003.09
2022-08-02T09:38:26.473Z,1003.07
2022-08-02T09:39:25.036Z,1003.08
2022-08-02T09:40:25.056Z,1003.07
2022-08-02T09:41:24.996Z,1003.05
2022-08-02T09:42:24.978Z,1003.03
2022-08-02T09:43:26.017Z,1003.06
2022-08-02T09:44:24.958Z,1003.03
2022-08-02T09:45:24.977Z,1003.04
2022-08-02T09:46:24.943Z,1003.05
2022-08-02T09:47:24.914Z,1003.04
2022-08-02T09:48:24.899Z,1003.05
2022-08-02T09:49:24.925Z,1003.07
2022-08-02T09:50:24.869Z,1003.04
2022-08-02T09:51:24.857Z,1003.08
2022-08-02T09:52:25.010Z,1003.06
2022-08-02T09:53:26.122Z,1003.03
2022-08-02T09:54:25.416Z,1003.00
2022-08-02T09:55:25.104Z,1003.03
2022-08-02T09:56:30.273Z,1002.98
2022-08-02T09:57:26.149Z,1003.03
2022-08-02T09:58:25.298Z,1003.04
2022-08-02T09:59:25.317Z,1003.03
2022-08-02T10:00:43.386Z,1003.01
2022-08-02T10:01:37.201Z,1003.01
2022-08-02T10:02:25.786Z,1003.05
2022-08-02T10:03:26.741Z,1003.04
2022-08-02T10:04:25.689Z,1003.03
2022-08-02T10:05:24.680Z,1003.01
2022-08-02T10:06:24.820Z,1003.02
2022-08-02T10:07:24.938Z,1003.04
2022-08-02T10:08:24.771Z,1003.02
2022-08-02T10:09:24.878Z,1003.03
2022-08-02T10:10:24.813Z,1003.04
2022-08-02T10:11:24.603Z,1003.03
2022-08-02T10:12:24.572Z,1003.00
2022-08-02T10:13:24.553Z,1002.94
2022-08-02T10:14:24.572Z,1002.99
2022-08-02T10:15:27.336Z,1002.94
2022-08-02T10:16:24.547Z,1002.93
2022-08-02T10:17:24.560Z,1002.85
2022-08-02T10:18:38.186Z,1002.86
2022-08-02T10:20:01.977Z,1002.89
2022-08-02T10:20:25.611Z,1002.91
2022-08-02T10:21:24.561Z,1002.88
2022-08-02T10:22:24.553Z,1002.89
2022-08-02T10:23:24.433Z,1002.88
2022-08-02T10:24:24.472Z,1002.83
2022-08-02T10:25:25.224Z,1002.79
2022-08-02T10:26:24.390Z,1002.82
2022-08-02T10:27:24.774Z,1002.78
2022-08-02T10:28:24.401Z,1002.74
2022-08-02T10:29:24.374Z,1002.71
2022-08-02T10:30:24.451Z,1002.73
2022-08-02T10:31:24.469Z,1002.70
2022-08-02T10:32:24.333Z,1002.74
2022-08-02T10:33:24.293Z,1002.76
2022-08-02T10:34:24.541Z,1002.73
2022-08-02T10:35:26.758Z,1002.72
2022-08-02T10:36:24.539Z,1002.69
2022-08-02T10:37:24.574Z,1002.70
2022-08-02T10:38:24.552Z,1002.63
2022-08-02T10:39:25.475Z,1002.60
2022-08-02T10:40:24.348Z,1002.60
2022-08-02T10:41:24.203Z,1002.57
2022-08-02T10:42:24.332Z,1002.56
2022-08-02T10:43:24.163Z,1002.52
2022-08-02T10:44:25.327Z,1002.53
2022-08-02T10:45:24.132Z,1002.54
2022-08-02T10:46:24.156Z,1002.52
2022-08-02T10:47:24.113Z,1002.52
2022-08-02T10:48:24.105Z,1002.56
2022-08-02T10:49:40.609Z,1002.50
2022-08-02T10:50:25.095Z,1002.51
2022-08-02T10:51:24.510Z,1002.48
2022-08-02T10:52:24.068Z,1002.46
2022-08-02T10:53:24.039Z,1002.48
2022-08-02T10:54:24.024Z,1002.49
2022-08-02T10:55:24.034Z,1002.45
2022-08-02T10:56:24.023Z,1002.39
2022-08-02T10:57:23.988Z,1002.38
2022-08-02T10:58:25.822Z,1002.33
2022-08-02T10:59:23.986Z,1002.35
2022-08-02T11:00:23.959Z,1002.38
2022-08-02T11:01:23.976Z,1002.39
2022-08-02T11:02:23.918Z,1002.38
2022-08-02T11:03:23.888Z,1002.37
2022-08-02T11:04:23.879Z,1002.33
2022-08-02T11:05:23.888Z,1002.35
2022-08-02T11:06:25.045Z,1002.34
2022-08-02T11:07:23.858Z,1002.35
2022-08-02T11:08:23.837Z,1002.32
2022-08-02T11:09:27.048Z,1002.33
2022-08-02T11:10:24.821Z,1002.31
2022-08-02T11:11:53.723Z,1002.35
2022-08-02T11:12:24.761Z,1002.44
2022-08-02T11:13:23.771Z,1002.43
2022-08-02T11:14:23.756Z,1002.44
2022-08-02T11:15:23.772Z,1002.37
2022-08-02T11:16:23.732Z,1002.35
2022-08-02T11:17:23.711Z,1002.29
2022-08-02T11:18:23.801Z,1002.33
2022-08-02T11:19:23.700Z,1002.33
2022-08-02T11:20:23.893Z,1002.28
2022-08-02T11:21:23.680Z,1002.26
2022-08-02T11:22:25.850Z,1002.22
2022-08-02T11:23:23.641Z,1002.18
2022-08-02T11:24:24.631Z,1002.23
2022-08-02T11:25:23.642Z,1002.25
2022-08-02T11:26:23.610Z,1002.23
2022-08-02T11:27:23.595Z,1002.19
2022-08-02T11:28:25.356Z,1002.19
2022-08-02T11:29:23.570Z,1002.22
2022-08-02T11:30:26.778Z,1002.18
2022-08-02T11:31:23.534Z,1002.16
2022-08-02T11:32:31.266Z,1002.16
2022-08-02T11:33:24.514Z,1002.16
2022-08-02T11:34:37.093Z,1002.14
2022-08-02T11:35:24.505Z,1002.11
2022-08-02T11:36:23.456Z,1002.10
2022-08-02T11:37:23.456Z,1002.06
2022-08-02T11:38:23.455Z,1002.07
2022-08-02T11:39:23.456Z,1002.05
2022-08-02T11:40:23.435Z,1002.02
2022-08-02T11:41:46.923Z,1002.02
2022-08-02T11:42:24.401Z,1001.99
2022-08-02T11:43:23.388Z,1002.02
2022-08-02T11:44:23.474Z,1002.03
2022-08-02T11:45:27.538Z,1002.05
2022-08-02T11:46:24.346Z,1001.98
2022-08-02T11:47:23.337Z,1001.99
2022-08-02T11:48:23.327Z,1001.97
2022-08-02T11:49:23.358Z,1002.02
2022-08-02T11:50:29.813Z,1002.02
2022-08-02T11:51:24.808Z,1001.98
2022-08-02T11:52:23.267Z,1001.99
2022-08-02T11:53:23.249Z,1001.98
2022-08-02T11:54:23.248Z,1002.02
2022-08-02T11:55:23.308Z,1002.03
2022-08-02T11:56:25.432Z,1002.00
2022-08-02T11:57:23.205Z,1002.01
2022-08-02T11:58:23.201Z,1001.99
2022-08-02T11:59:23.169Z,1001.92
2022-08-02T12:00:23.187Z,1001.93
2022-08-02T12:01:24.149Z,1001.90
2022-08-02T12:02:23.139Z,1001.95
2022-08-02T12:03:23.164Z,1001.97
2022-08-02T12:04:23.573Z,1001.98
2022-08-02T12:05:44.740Z,1001.93